Time;durP1;ratioP1;P1;durP2;ratioP2;P2;SDS_P1;SDS_P2;PMS_P1;PMS_P2;Temp;Humidity;BMP_temperature;BMP_pressure;BME280_temperature;BME280_humidity;BME280_pressure;Samples;Min_cycle;Max_cycle;Signal;HPM_P1;HPM_P2
2023/09/19 00:01:39;;;;;;;0.10;0.10;;;;;;;13.58;100.00;100626.06;5116499;27;20028;-45
2023/09/19 00:04:09;;;;;;;0.10;0.10;;;;;;;13.55;100.00;100642.44;5116444;28;20024;-44
2023/09/19 00:06:35;;;;;;;0.10;0.10;;;;;;;13.52;100.00;100641.53;5115133;28;20020;-44
2023/09/19 00:09:00;;;;;;;0.10;0.10;;;;;;;13.49;100.00;100644.94;5116180;28;20022;-44
2023/09/19 00:11:26;;;;;;;0.10;0.10;;;;;;;13.44;100.00;100644.88;5115868;28;20020;-44
2023/09/19 00:13:52;;;;;;;0.10;0.10;;;;;;;13.40;100.00;100647.41;5115380;28;20023;-49
2023/09/19 00:16:20;;;;;;;0.13;0.13;;;;;;;13.37;100.00;100653.41;5115918;28;20030;-46
2023/09/19 00:18:46;;;;;;;0.10;0.10;;;;;;;13.36;100.00;100656.78;5116021;28;20050;-44
2023/09/19 00:21:12;;;;;;;0.20;0.20;;;;;;;13.36;100.00;100656.78;5115108;28;20122;-44
2023/09/19 00:23:38;;;;;;;0.10;0.10;;;;;;;13.36;100.00;100654.22;5116196;28;20028;-44
2023/09/19 00:26:03;;;;;;;0.10;0.10;;;;;;;13.33;100.00;100659.34;5116045;28;20046;-45
2023/09/19 00:28:29;;;;;;;0.10;0.10;;;;;;;13.32;100.00;100655.00;5114422;28;20152;-45
2023/09/19 00:30:55;;;;;;;0.10;0.10;;;;;;;13.29;100.00;100667.91;5115951;28;20028;-46
2023/09/19 00:33:22;;;;;;;0.10;0.10;;;;;;;13.29;100.00;100667.91;5115453;28;20027;-49
2023/09/19 00:35:52;;;;;;;0.10;0.10;;;;;;;13.23;100.00;100673.00;5114897;28;20056;-44
2023/09/19 00:38:22;;;;;;;0.10;0.10;;;;;;;13.23;100.00;100666.09;5115535;28;20027;-48
2023/09/19 00:40:48;;;;;;;0.10;0.10;;;;;;;13.22;100.00;100674.72;5115812;28;20034;-45
2023/09/19 00:43:13;;;;;;;0.10;0.10;;;;;;;13.17;100.00;100677.22;5114784;28;20023;-48
2023/09/19 00:45:43;;;;;;;0.20;0.20;;;;;;;13.16;100.00;100679.78;5115353;28;20036;-46
2023/09/19 00:48:09;;;;;;;0.10;0.10;;;;;;;13.19;100.00;100679.84;5114683;28;20028;-44
2023/09/19 00:50:35;;;;;;;0.10;0.10;;;;;;;13.20;100.00;100680.72;5115116;28;20032;-44
2023/09/19 00:53:01;;;;;;;0.20;0.20;;;;;;;13.18;100.00;100685.84;5115560;28;20016;-48
2023/09/19 00:55:29;;;;;;;0.10;0.10;;;;;;;13.14;100.00;100697.00;5114488;28;20477;-47
2023/09/19 00:57:55;;;;;;;0.13;0.13;;;;;;;13.11;100.00;100700.41;5115002;28;20522;-46
2023/09/19 01:00:21;;;;;;;0.10;0.10;;;;;;;13.09;100.00;100698.63;5114856;28;20071;-48
2023/09/19 01:02:47;;;;;;;0.10;0.10;;;;;;;13.08;100.00;100697.78;5114291;28;20020;-48
2023/09/19 01:05:12;;;;;;;0.10;0.10;;;;;;;13.05;100.00;100702.88;5114956;28;20032;-44
2023/09/19 01:07:41;;;;;;;0.10;0.10;;;;;;;12.99;100.00;100702.81;5115220;27;20031;-46
2023/09/19 01:10:10;;;;;;;0.10;0.10;;;;;;;12.97;100.00;100709.66;5114329;28;20034;-44
2023/09/19 01:12:48;;;;;;;0.10;0.10;;;;;;;12.99;100.00;100713.16;5114733;28;20058;-44
2023/09/19 01:15:16;;;;;;;;;;;;;;;13.02;100.00;100719.22;5114918;28;20459;-44
2023/09/19 01:18:07;;;;;;;0.10;0.10;;;;;;;12.96;100.00;100710.50;5114270;28;19911;-47
2023/09/19 01:20:39;;;;;;;0.17;0.17;;;;;;;12.89;100.00;100712.09;5114626;28;20110;-45
2023/09/19 01:23:15;;;;;;;0.20;0.20;;;;;;;12.88;100.00;100718.13;5114854;28;20023;-47
2023/09/19 01:25:56;;;;;;;0.20;0.20;;;;;;;12.84;100.00;100716.31;5114658;28;20038;-48
2023/09/19 01:28:38;;;;;;;0.10;0.10;;;;;;;12.87;100.00;100718.09;5114319;28;20485;-47
2023/09/19 01:31:09;;;;;;;0.20;0.20;;;;;;;12.84;100.00;100727.53;5114015;28;20020;-49
2023/09/19 01:34:01;;;;;;;0.15;0.15;;;;;;;12.83;100.00;100725.81;5114216;28;20432;-46
2023/09/19 01:36:29;;;;;;;0.20;0.20;;;;;;;12.82;100.00;100731.81;5114087;28;20034;-44
2023/09/19 01:38:55;;;;;;;0.20;0.20;;;;;;;12.78;100.00;100735.19;5112851;28;20467;-44
2023/09/19 01:41:52;;;;;;;0.10;0.10;;;;;;;12.79;100.00;100738.66;5114220;28;20055;-46
2023/09/19 01:44:49;;;;;;;0.13;0.13;;;;;;;12.78;100.00;100740.38;5113953;28;20043;-47
2023/09/19 01:47:23;;;;;;;;;;;;;;;12.80;100.00;100738.66;5081124;28;20101;-48
2023/09/19 01:50:10;;;;;;;0.20;0.20;;;;;;;12.68;100.00;100741.03;5114454;28;19907;-49
2023/09/19 01:52:45;;;;;;;0.17;0.17;;;;;;;12.70;100.00;100741.91;5113208;28;20027;-45
2023/09/19 01:55:17;;;;;;;0.10;0.10;;;;;;;12.71;100.00;100741.09;5114497;28;20047;-46
2023/09/19 01:57:52;;;;;;;0.10;0.10;;;;;;;12.68;100.00;100743.63;5114168;28;20043;-45
2023/09/19 02:00:18;;;;;;;0.13;0.13;;;;;;;12.65;100.00;100739.25;5113037;28;20035;-45
2023/09/19 02:02:47;;;;;;;0.10;0.10;;;;;;;12.67;100.00;100736.69;5114314;28;20102;-47
2023/09/19 02:05:13;;;;;;;0.10;0.10;;;;;;;12.62;100.00;100733.16;5113605;28;20020;-46
2023/09/19 02:07:40;;;;;;;0.10;0.10;;;;;;;12.63;100.00;100734.91;5113420;28;20035;-47
2023/09/19 02:10:11;;;;;;;0.10;0.10;;;;;;;12.60;100.00;100732.25;5114157;28;20054;-45
2023/09/19 02:12:38;;;;;;;0.20;0.20;;;;;;;12.60;100.00;100729.66;5113227;28;20028;-45
2023/09/19 02:15:06;;;;;;;0.20;0.20;;;;;;;12.61;100.00;100734.00;5113870;28;20057;-47
2023/09/19 02:17:32;;;;;;;0.10;0.10;;;;;;;12.56;100.00;100738.19;5113571;28;20027;-46
2023/09/19 02:19:58;;;;;;;0.20;0.20;;;;;;;12.58;100.00;100739.13;5112907;28;20382;-45
2023/09/19 02:22:24;;;;;;;0.20;0.20;;;;;;;12.56;100.00;100738.19;5113639;28;20023;-48
2023/09/19 02:24:50;;;;;;;0.20;0.20;;;;;;;12.55;100.00;100736.44;5113563;28;20076;-44
2023/09/19 02:27:16;;;;;;;0.20;0.20;;;;;;;12.54;100.00;100742.47;5112445;28;20463;-47
2023/09/19 02:29:42;;;;;;;0.20;0.20;;;;;;;12.49;100.00;100735.50;5113466;28;20035;-46
2023/09/19 02:32:09;;;;;;;0.20;0.20;;;;;;;12.51;100.00;100743.25;5113588;28;20016;-44
2023/09/19 02:34:36;;;;;;;0.13;0.13;;;;;;;12.45;100.00;100746.63;5112421;28;20471;-47
2023/09/19 02:37:08;;;;;;;0.20;0.20;;;;;;;12.43;100.00;100748.28;5113726;28;20034;-47
2023/09/19 02:39:34;;;;;;;0.20;0.20;;;;;;;12.42;100.00;100746.56;5113321;28;20387;-44
2023/09/19 02:41:59;;;;;;;0.20;0.20;;;;;;;12.36;100.00;100746.44;5112486;28;20478;-44
2023/09/19 02:44:24;;;;;;;0.20;0.20;;;;;;;12.35;100.00;100750.72;5113218;28;20038;-44
2023/09/19 02:46:50;;;;;;;0.10;0.10;;;;;;;12.30;100.00;100749.78;5113398;28;20030;-47
2023/09/19 02:49:17;;;;;;;0.20;0.20;;;;;;;12.28;100.00;100753.16;5112211;28;20039;-46
2023/09/19 02:51:43;;;;;;;0.20;0.20;;;;;;;12.25;100.00;100753.09;5113210;28;20483;-44
2023/09/19 02:54:08;;;;;;;0.17;0.17;;;;;;;12.23;100.00;100750.47;5113440;28;20063;-46
2023/09/19 02:56:35;;;;;;;0.20;0.20;;;;;;;12.18;100.00;100755.53;5111958;28;20026;-45
2023/09/19 02:59:00;;;;;;;0.17;0.17;;;;;;;12.18;100.00;100752.94;5113465;28;20072;-44
2023/09/19 03:01:27;;;;;;;0.20;0.20;;;;;;;12.15;100.00;100762.38;5112796;28;20028;-47
2023/09/19 03:03:53;;;;;;;0.15;0.15;;;;;;;12.14;100.00;100764.06;5112723;28;20020;-45
2023/09/19 03:06:19;;;;;;;0.10;0.10;;;;;;;12.08;100.00;100763.91;5113043;28;20027;-45
2023/09/19 03:08:46;;;;;;;0.20;0.20;;;;;;;12.10;100.00;100764.84;5112611;28;20433;-48
2023/09/19 03:11:14;;;;;;;0.10;0.10;;;;;;;12.10;100.00;100764.84;5113001;28;20016;-44
2023/09/19 03:13:41;;;;;;;0.17;0.17;;;;;;;12.06;100.00;100763.03;5113015;28;20610;-48
2023/09/19 03:16:07;;;;;;;0.10;0.10;;;;;;;11.99;100.00;100763.72;5112214;28;20027;-44
2023/09/19 03:18:34;;;;;;;0.20;0.20;;;;;;;12.00;100.00;100760.31;5112896;28;20051;-47
2023/09/19 03:21:00;;;;;;;0.20;0.20;;;;;;;12.00;100.00;100758.59;5113192;28;20028;-45
2023/09/19 03:23:26;;;;;;;0.10;0.10;;;;;;;12.00;100.00;100760.31;5112119;28;20593;-44
2023/09/19 03:25:52;;;;;;;0.10;0.10;;;;;;;12.01;100.00;100764.63;5113172;28;20031;-44
2023/09/19 03:28:17;;;;;;;0.10;0.10;;;;;;;12.00;100.00;100762.88;5112721;28;20101;-44
2023/09/19 03:30:43;;;;;;;0.10;0.10;;;;;;;12.01;100.00;100754.31;5112104;28;20050;-46
2023/09/19 03:33:11;;;;;;;0.20;0.20;;;;;;;12.05;100.00;100761.28;5113110;28;20363;-44
2023/09/19 03:35:38;;;;;;;0.10;0.10;;;;;;;12.02;100.00;100766.38;5113104;28;20024;-44
2023/09/19 03:38:04;;;;;;;0.20;0.20;;;;;;;12.02;100.00;100766.38;5112487;28;20092;-46
2023/09/19 03:40:29;;;;;;;0.20;0.20;;;;;;;12.02;100.00;100761.22;5112579;28;20116;-45
2023/09/19 03:42:55;;;;;;;0.20;0.20;;;;;;;12.01;100.00;100754.31;5112903;28;20055;-45
2023/09/19 03:45:20;;;;;;;0.15;0.15;;;;;;;12.04;100.00;100763.84;5111532;28;20024;-44
2023/09/19 03:47:47;;;;;;;0.20;0.20;;;;;;;12.02;100.00;100750.91;5113318;28;20031;-45
2023/09/19 03:50:15;;;;;;;0.20;0.20;;;;;;;11.98;100.00;100744.78;5112635;28;20027;-46
2023/09/19 03:52:40;;;;;;;;;;;;;;;12.07;100.00;100745.81;5112506;28;20031;-48
2023/09/19 03:55:06;;;;;;;0.10;0.10;;;;;;;12.01;100.00;100739.66;5112924;28;20333;-47
2023/09/19 03:57:31;;;;;;;0.20;0.20;;;;;;;12.03;100.00;100742.28;5112229;28;20324;-48
2023/09/19 03:59:56;;;;;;;0.20;0.20;;;;;;;12.09;100.00;100744.13;5111734;28;20019;-44
2023/09/19 04:02:22;;;;;;;0.20;0.20;;;;;;;12.09;100.00;100741.56;5113236;28;20038;-44
2023/09/19 04:04:48;;;;;;;0.10;0.10;;;;;;;12.12;100.00;100737.34;5116458;28;20024;-45
2023/09/19 04:07:14;;;;;;;0.10;0.10;;;;;;;12.21;100.00;100743.53;5115230;28;20421;-44
2023/09/19 04:09:39;;;;;;;0.20;0.20;;;;;;;12.24;100.00;100734.13;5116163;28;20109;-44
2023/09/19 04:12:05;;;;;;;0.20;0.20;;;;;;;12.23;100.00;100749.63;5115294;28;20046;-44
2023/09/19 04:14:30;;;;;;;0.20;0.20;;;;;;;12.25;100.00;100745.34;5115860;28;20035;-44
2023/09/19 04:16:55;;;;;;;0.10;0.10;;;;;;;12.27;100.00;100746.25;5116247;28;20024;-45
2023/09/19 04:19:22;;;;;;;0.10;0.10;;;;;;;12.28;100.00;100748.84;5115238;28;20065;-45
2023/09/19 04:21:48;;;;;;;0.17;0.17;;;;;;;12.31;100.00;100758.38;5115978;28;20434;-45
2023/09/19 04:24:13;;;;;;;0.20;0.20;;;;;;;12.36;100.00;100761.94;5115676;28;20471;-43
2023/09/19 04:26:39;;;;;;;0.20;0.20;;;;;;;12.41;100.00;100770.66;5115312;28;20020;-45
2023/09/19 04:29:05;;;;;;;0.10;0.10;;;;;;;12.44;100.00;100775.03;5116083;28;20028;-47
2023/09/19 04:31:31;;;;;;;0.20;0.20;;;;;;;12.40;100.00;100779.25;5115746;27;20027;-44
2023/09/19 04:33:58;;;;;;;0.13;0.13;;;;;;;12.43;100.00;100774.13;5115108;28;20020;-45
2023/09/19 04:36:23;;;;;;;0.13;0.13;;;;;;;12.46;100.00;100784.56;5115529;28;20020;-46
2023/09/19 04:38:48;;;;;;;0.20;0.20;;;;;;;12.47;100.00;100788.00;5115784;28;20024;-46
2023/09/19 04:41:15;;;;;;;0.10;0.10;;;;;;;12.48;100.00;100798.38;5114675;28;20072;-47
2023/09/19 04:43:40;;;;;;;0.10;0.10;;;;;;;12.52;100.00;100804.47;5115620;28;20024;-46
2023/09/19 04:46:07;;;;;;;0.20;0.20;;;;;;;12.60;100.00;100807.22;5115493;28;20020;-44
2023/09/19 04:48:34;;;;;;;0.10;0.10;;;;;;;12.67;100.00;100814.28;5114595;28;20039;-44
2023/09/19 04:50:59;;;;;;;0.10;0.10;;;;;;;12.70;100.00;100819.50;5115347;28;20115;-45
2023/09/19 04:53:28;;;;;;;0.20;0.20;;;;;;;12.70;100.00;100822.09;5115129;28;20107;-44
2023/09/19 04:55:55;;;;;;;0.10;0.10;;;;;;;12.71;100.00;100821.25;5114543;28;20016;-44
2023/09/19 04:58:21;;;;;;;0.20;0.20;;;;;;;12.72;100.00;100806.59;5114775;27;20085;-48
2023/09/19 05:00:46;;;;;;;0.10;0.10;;;;;;;12.65;100.00;100814.25;5115075;28;20463;-45
2023/09/19 05:03:12;;;;;;;0.20;0.20;;;;;;;12.65;100.00;100810.78;5113534;28;20039;-44
2023/09/19 05:05:38;;;;;;;0.20;0.20;;;;;;;12.63;100.00;100818.50;5115182;28;20111;-45
2023/09/19 05:08:05;;;;;;;0.20;0.20;;;;;;;12.60;100.00;100814.97;5115133;28;20020;-44
2023/09/19 05:10:31;;;;;;;0.20;0.20;;;;;;;12.61;100.00;100820.16;5113886;28;20428;-45
2023/09/19 05:12:57;;;;;;;0.20;0.20;;;;;;;12.59;100.00;100820.97;5114792;28;20102;-46
2023/09/19 05:15:22;;;;;;;0.10;0.10;;;;;;;12.61;100.00;100819.31;5112848;28;20110;-47
2023/09/19 05:17:51;;;;;;;0.17;0.17;;;;;;;12.59;100.00;100820.97;5115014;28;20031;-44
2023/09/19 05:20:32;;;;;;;0.10;0.10;;;;;;;12.60;100.00;100822.72;5114408;28;20023;-47
2023/09/19 05:23:11;;;;;;;0.13;0.13;;;;;;;12.61;100.00;100834.81;5113928;28;20397;-45
2023/09/19 05:25:37;;;;;;;0.10;0.10;;;;;;;12.56;100.00;100824.38;5114602;28;20012;-46
2023/09/19 05:28:05;;;;;;;0.20;0.20;;;;;;;12.55;100.00;100825.25;5114671;28;20047;-44
2023/09/19 05:30:30;;;;;;;;;;;;;;;12.62;100.00;100836.56;5113857;28;20028;-47
2023/09/19 05:32:56;;;;;;;0.20;0.20;;;;;;;12.58;100.00;100827.88;5114832;28;19912;-44
2023/09/19 05:35:23;;;;;;;0.20;0.20;;;;;;;12.59;100.00;100824.47;5114293;28;20020;-44
2023/09/19 05:37:50;;;;;;;0.20;0.20;;;;;;;12.57;100.00;100838.19;5113683;28;20030;-45
2023/09/19 05:40:16;;;;;;;;;;;;;;;12.63;100.00;100830.56;5114344;28;20416;-45
2023/09/19 05:42:43;;;;;;;0.20;0.20;;;;;;;12.60;100.00;100836.56;5114535;28;19915;-48
2023/09/19 05:45:12;;;;;;;0.20;0.20;;;;;;;12.60;100.00;100848.59;5113584;28;20386;-45
2023/09/19 05:47:45;;;;;;;0.10;0.10;;;;;;;12.58;100.00;100830.47;5114416;28;20027;-48
2023/09/19 05:50:11;;;;;;;0.10;0.10;;;;;;;12.59;100.00;100831.31;5114241;28;20039;-48
2023/09/19 05:52:40;;;;;;;0.15;0.15;;;;;;;12.57;100.00;100833.88;5113188;28;20020;-44
2023/09/19 05:55:07;;;;;;;0.10;0.10;;;;;;;12.60;100.00;100826.22;5114068;28;20498;-44
2023/09/19 05:57:33;;;;;;;0.20;0.20;;;;;;;12.56;100.00;100826.97;5113445;28;20139;-46
2023/09/19 05:59:59;;;;;;;0.20;0.20;;;;;;;12.57;100.00;100820.09;5113887;28;20320;-44
2023/09/19 06:02:26;;;;;;;0.10;0.10;;;;;;;12.58;100.00;100829.59;5113524;28;20024;-45
2023/09/19 06:04:53;;;;;;;0.20;0.20;;;;;;;12.58;100.00;100837.34;5113402;28;20080;-45
2023/09/19 06:07:18;;;;;;;0.10;0.10;;;;;;;12.62;100.00;100826.22;5113819;28;20068;-45
2023/09/19 06:09:43;;;;;;;0.20;0.20;;;;;;;12.64;100.00;100830.59;5114007;28;20032;-45
2023/09/19 06:12:08;;;;;;;0.10;0.10;;;;;;;12.66;100.00;100833.22;5113070;28;20387;-46
2023/09/19 06:14:34;;;;;;;0.10;0.10;;;;;;;12.68;100.00;100829.81;5113522;28;20031;-43
2023/09/19 06:17:00;;;;;;;0.10;0.10;;;;;;;12.70;100.00;100831.56;5113834;28;20069;-46
2023/09/19 06:19:25;;;;;;;0.10;0.10;;;;;;;12.71;100.00;100831.59;5112664;28;20035;-45
2023/09/19 06:21:53;;;;;;;0.20;0.20;;;;;;;12.73;100.00;100835.09;5113557;28;20024;-44
2023/09/19 06:24:19;;;;;;;0.20;0.20;;;;;;;12.74;100.00;100844.56;5113576;28;20020;-45
2023/09/19 06:26:45;;;;;;;0.17;0.17;;;;;;;12.77;100.00;100841.19;5112355;28;20035;-44
2023/09/19 06:29:10;;;;;;;0.10;0.10;;;;;;;12.78;100.00;100846.41;5113508;28;20031;-48
2023/09/19 06:31:35;;;;;;;0.20;0.20;;;;;;;12.80;100.00;100843.84;5113225;28;20459;-45
2023/09/19 06:34:03;;;;;;;0.20;0.20;;;;;;;12.81;100.00;100856.81;5112560;28;20020;-44
2023/09/19 06:36:28;;;;;;;0.20;0.20;;;;;;;12.83;100.00;100857.72;5113435;28;20027;-45
2023/09/19 06:38:53;;;;;;;0.20;0.20;;;;;;;12.85;100.00;100863.78;5113629;28;20375;-44
2023/09/19 06:41:19;;;;;;;0.10;0.10;;;;;;;12.87;100.00;100863.81;5112318;28;20378;-44
2023/09/19 06:43:44;;;;;;;0.10;0.10;;;;;;;12.90;100.00;100860.41;5113538;28;20098;-46
2023/09/19 06:46:10;;;;;;;0.10;0.10;;;;;;;12.92;100.00;100858.72;5113343;28;20477;-44
2023/09/19 06:48:36;;;;;;;0.20;0.20;;;;;;;12.95;100.00;100874.31;5112117;28;20027;-44
2023/09/19 06:51:04;;;;;;;0.10;0.10;;;;;;;12.96;100.00;100874.34;5113581;28;20102;-44
2023/09/19 06:53:31;;;;;;;0.13;0.13;;;;;;;12.99;100.00;100873.56;5113153;28;20015;-46
2023/09/19 06:55:57;;;;;;;0.10;0.10;;;;;;;12.99;100.00;100877.00;5112616;28;20023;-47
2023/09/19 06:58:22;;;;;;;0.20;0.20;;;;;;;13.01;100.00;100864.09;5112757;28;20048;-49
2023/09/19 07:00:49;;;;;;;0.10;0.10;;;;;;;13.03;100.00;100867.59;5113134;28;20066;-44
2023/09/19 07:03:19;;;;;;;0.10;0.10;;;;;;;13.07;100.00;100856.44;5112394;28;20038;-45
2023/09/19 07:05:47;;;;;;;0.10;0.10;;;;;;;13.09;100.00;100859.94;5113550;28;20111;-46
2023/09/19 07:08:13;;;;;;;0.10;0.10;;;;;;;13.11;100.00;100860.84;5112272;28;20036;-44
2023/09/19 07:10:44;;;;;;;0.20;0.20;;;;;;;13.14;100.00;100858.31;5113219;28;20108;-45
2023/09/19 07:13:10;;;;;;;0.20;0.20;;;;;;;13.18;100.00;100872.16;5113427;28;20034;-45
2023/09/19 07:15:39;;;;;;;0.10;0.10;;;;;;;13.22;100.00;100874.00;5111987;28;20020;-47
2023/09/19 07:18:05;;;;;;;0.20;0.20;;;;;;;13.25;100.00;100873.19;5112986;28;20467;-44
2023/09/19 07:20:32;;;;;;;0.10;0.10;;;;;;;13.26;100.00;100873.22;5112869;28;20039;-48
2023/09/19 07:23:01;;;;;;;0.10;0.10;;;;;;;13.31;100.00;100879.34;5112076;28;20465;-45
2023/09/19 07:25:29;;;;;;;0.10;0.10;;;;;;;13.35;100.00;100875.09;5112830;28;20446;-45
2023/09/19 07:27:56;;;;;;;0.17;0.17;;;;;;;13.37;100.00;100870.84;5113099;28;20103;-45
2023/09/19 07:30:21;;;;;;;0.10;0.10;;;;;;;13.43;100.00;100865.78;5111907;28;20030;-44
2023/09/19 07:32:47;;;;;;;0.20;0.20;;;;;;;13.50;100.00;100870.25;5113164;28;20019;-45
2023/09/19 07:35:13;;;;;;;0.10;0.10;;;;;;;13.60;100.00;100865.22;5112817;28;20055;-44
2023/09/19 07:37:38;;;;;;;0.10;0.10;;;;;;;13.69;100.00;100872.28;5113553;28;20027;-44
2023/09/19 07:40:07;;;;;;;0.20;0.20;;;;;;;13.76;100.00;100868.94;5116842;28;20028;-45
2023/09/19 07:42:35;;;;;;;0.20;0.20;;;;;;;13.79;100.00;100874.19;5116453;28;20032;-44
2023/09/19 07:45:01;;;;;;;0.20;0.20;;;;;;;13.89;100.00;100877.78;5115899;28;20023;-44
2023/09/19 07:47:27;;;;;;;0.10;0.10;;;;;;;13.96;100.00;100874.44;5116519;28;20024;-45
2023/09/19 07:49:53;;;;;;;0.15;0.15;;;;;;;14.01;100.00;100883.16;5116750;28;20504;-44
2023/09/19 07:52:19;;;;;;;0.10;0.10;;;;;;;14.11;100.00;100879.88;5115610;28;20077;-45
2023/09/19 07:54:44;;;;;;;0.10;0.10;;;;;;;14.16;100.00;100885.13;5116554;28;20020;-46
2023/09/19 07:57:11;;;;;;;0.20;0.20;;;;;;;14.23;100.00;100876.59;5115563;28;20050;-45
2023/09/19 07:59:38;;;;;;;0.13;0.13;;;;;;;14.33;100.00;100890.53;5116222;28;20080;-45
2023/09/19 08:02:04;;;;;;;0.20;0.20;;;;;;;14.39;100.00;100877.69;5116481;28;20475;-45
2023/09/19 08:04:33;;;;;;;0.10;0.10;;;;;;;14.50;100.00;100885.63;5115465;28;20038;-48
2023/09/19 08:07:00;;;;;;;0.15;0.15;;;;;;;14.62;100.00;100890.97;5116234;28;20520;-44
2023/09/19 08:09:26;;;;;;;0.10;0.10;;;;;;;14.70;100.00;100893.69;5116029;28;20118;-45
2023/09/19 08:11:51;;;;;;;0.13;0.13;;;;;;;14.80;100.00;100895.56;5115387;28;20141;-44
2023/09/19 08:14:16;;;;;;;0.10;0.10;;;;;;;14.83;100.00;100897.31;5116016;28;20475;-44
2023/09/19 08:16:44;;;;;;;0.10;0.10;;;;;;;14.87;100.00;100895.66;5116291;28;20055;-45
2023/09/19 08:19:10;;;;;;;0.10;0.10;;;;;;;14.97;100.00;100887.13;5115322;28;20374;-44
2023/09/19 08:21:36;;;;;;;0.10;0.10;;;;;;;15.06;100.00;100887.22;5115836;28;20462;-45
2023/09/19 08:24:04;;;;;;;0.10;0.10;;;;;;;15.11;100.00;100885.56;5116307;28;20027;-44
2023/09/19 08:26:30;;;;;;;0.10;0.10;;;;;;;15.08;100.00;100875.16;5114855;27;20027;-48
2023/09/19 08:28:56;;;;;;;0.20;0.20;;;;;;;15.14;100.00;100882.13;5115813;28;20473;-47
2023/09/19 08:31:22;;;;;;;0.10;0.10;;;;;;;15.22;100.00;100877.03;5115727;28;20035;-45
2023/09/19 08:33:49;;;;;;;0.10;0.10;;;;;;;15.22;100.00;100892.59;5115271;28;20027;-44
2023/09/19 08:36:14;;;;;;;0.10;0.10;;;;;;;15.26;100.00;100889.19;5115531;28;20024;-44
2023/09/19 08:38:40;;;;;;;0.10;0.10;;;;;;;15.31;100.00;100877.13;5115559;28;20046;-45
2023/09/19 08:41:08;;;;;;;0.10;0.10;;;;;;;15.39;100.00;100880.69;5114614;28;20035;-45
2023/09/19 08:43:34;;;;;;;0.10;0.10;;;;;;;15.51;100.00;100877.31;5115544;28;20047;-45
2023/09/19 08:46:05;;;;;;;0.10;0.10;;;;;;;15.63;100.00;100889.56;5115752;28;20397;-44
2023/09/19 08:48:31;;;;;;;0.10;0.10;;;;;;;15.81;100.00;100881.09;5114335;28;20023;-44
2023/09/19 08:51:03;;;;;;;0.10;0.10;;;;;;;15.99;100.00;100892.50;5115544;28;20023;-46
2023/09/19 08:53:41;;;;;;;0.10;0.10;;;;;;;15.90;100.00;100888.97;5114377;28;20043;-45
2023/09/19 08:56:13;;;;;;;0.10;0.10;;;;;;;15.83;100.00;100884.59;5115549;28;20028;-45
2023/09/19 08:58:53;;;;;;;0.10;0.10;;;;;;;16.02;100.00;100897.72;5115169;28;20032;-44
2023/09/19 09:01:24;;;;;;;0.10;0.10;;;;;;;16.32;100.00;100896.19;5114136;27;20368;-44
2023/09/19 09:03:53;;;;;;;0.10;0.10;;;;;;;16.29;100.00;100886.66;5115247;28;20375;-44
2023/09/19 09:06:20;;;;;;;0.00;0.00;;;;;;;16.39;100.00;100888.44;5114757;28;20011;-45
2023/09/19 09:08:47;;;;;;;0.10;0.10;;;;;;;16.27;100.00;100888.38;5114552;28;20036;-48
2023/09/19 09:11:14;;;;;;;0.10;0.10;;;;;;;16.46;100.00;100873.75;5114940;28;20016;-44
2023/09/19 09:13:41;;;;;;;0.10;0.10;;;;;;;16.61;100.00;100878.16;5115243;28;20077;-48
2023/09/19 09:16:07;;;;;;;0.10;0.10;;;;;;;16.68;100.00;100894.69;5114200;28;20026;-44
2023/09/19 09:18:33;;;;;;;0.10;0.10;;;;;;;16.87;98.93;100896.50;5114540;28;20421;-44
2023/09/19 09:20:58;;;;;;;0.10;0.10;;;;;;;16.80;97.69;100889.53;5114920;28;20039;-45
2023/09/19 09:23:25;;;;;;;0.10;0.10;;;;;;;16.92;98.47;100886.16;5113960;28;20377;-44
2023/09/19 09:26:06;;;;;;;0.10;0.10;;;;;;;16.99;97.75;100884.44;5114735;28;20571;-45
2023/09/19 09:28:33;;;;;;;0.10;0.10;;;;;;;17.05;98.64;100890.53;5114186;28;20073;-45
2023/09/19 09:31:02;;;;;;;0.10;0.10;;;;;;;17.16;96.10;100892.28;5114539;28;20471;-46
2023/09/19 09:33:28;;;;;;;0.10;0.10;;;;;;;17.25;97.46;100871.50;5114328;28;20280;-45
2023/09/19 09:36:02;;;;;;;0.10;0.10;;;;;;;17.39;94.58;100854.16;5113986;28;20019;-45
2023/09/19 09:38:48;;;;;;;0.10;0.10;;;;;;;17.52;92.51;100860.25;5114527;28;20019;-45
2023/09/19 09:41:27;;;;;;;0.10;0.10;;;;;;;17.82;91.70;100873.28;5113902;28;20035;-45
2023/09/19 09:43:53;;;;;;;0.10;0.10;;;;;;;17.94;89.67;100873.34;5113778;28;20104;-45
2023/09/19 09:49:19;;;;;;;0.08;0.08;;;;;;;18.45;87.48;100865.44;5114603;28;20031;-47
2023/09/19 09:51:59;;;;;;;0.10;0.10;;;;;;;18.29;85.81;100867.19;5113552;28;20034;-45
2023/09/19 09:54:30;;;;;;;0.00;0.00;;;;;;;18.24;84.38;100888.09;5114214;28;20019;-47
2023/09/19 09:57:06;;;;;;;0.10;0.10;;;;;;;18.12;85.24;100871.59;5113390;28;20040;-47
2023/09/19 09:59:55;;;;;;;0.10;0.10;;;;;;;18.09;88.02;100872.47;5113398;28;20042;-45
2023/09/19 10:02:28;;;;;;;0.10;0.10;;;;;;;18.27;85.34;100876.78;5113637;28;20023;-45
2023/09/19 10:05:01;;;;;;;0.10;0.10;;;;;;;18.13;86.17;100873.31;5113577;28;20031;-45
2023/09/19 10:07:50;;;;;;;0.10;0.10;;;;;;;18.24;85.60;100877.66;5113790;28;20043;-45
2023/09/19 10:10:37;;;;;;;0.10;0.10;;;;;;;18.35;84.03;100885.47;5113769;28;20052;-46
2023/09/19 10:13:05;;;;;;;0.10;0.10;;;;;;;18.43;81.40;100883.69;5113134;28;20083;-47
2023/09/19 10:15:32;;;;;;;0.20;0.15;;;;;;;18.41;80.25;100875.00;5113696;28;20031;-45
2023/09/19 10:18:01;;;;;;;0.03;0.03;;;;;;;18.33;82.50;100886.34;5112977;28;20125;-45
2023/09/19 10:20:38;;;;;;;0.05;0.05;;;;;;;18.53;82.73;100881.09;5113447;28;20027;-45
2023/09/19 10:23:14;;;;;;;;;;;;;;;18.71;82.78;100878.41;5114068;28;20059;-45
2023/09/19 10:25:47;;;;;;;0.10;0.10;;;;;;;18.87;78.54;100879.19;5113067;28;19964;-44
2023/09/19 10:28:15;;;;;;;0.10;0.10;;;;;;;18.62;78.98;100872.31;5113637;28;20027;-44
2023/09/19 10:30:49;;;;;;;0.00;0.00;;;;;;;19.06;79.13;100873.94;5113758;28;20076;-47
2023/09/19 10:33:16;;;;;;;0.03;0.03;;;;;;;18.94;78.02;100880.09;5112549;28;20028;-46
2023/09/19 10:35:47;;;;;;;0.00;0.00;;;;;;;18.67;76.96;100875.78;5113502;28;20020;-44
2023/09/19 10:38:14;;;;;;;0.10;0.10;;;;;;;18.32;79.72;100864.59;5113418;28;20153;-45
2023/09/19 10:40:43;;;;;;;;;;;;;;;18.70;77.84;100874.03;5113215;28;20019;-44
2023/09/19 10:43:13;;;;;;;0.10;0.10;;;;;;;18.90;80.06;100875.72;5113499;28;19919;-45
2023/09/19 10:45:40;;;;;;;0.00;0.00;;;;;;;19.29;77.15;100873.81;5113394;28;20492;-44
2023/09/19 10:48:07;;;;;;;0.10;0.10;;;;;;;19.76;72.69;100868.25;5112514;28;20034;-44
2023/09/19 10:50:59;;;;;;;0.10;0.10;;;;;;;20.02;71.82;100858.44;5112985;28;20152;-45
2023/09/19 10:53:27;;;;;;;0.00;0.00;;;;;;;19.81;72.47;100863.84;5112337;28;20024;-45
2023/09/19 10:56:06;;;;;;;0.00;0.00;;;;;;;19.57;71.08;100855.31;5113585;28;20031;-44
2023/09/19 10:58:38;;;;;;;0.10;0.10;;;;;;;19.22;71.06;100859.03;5113008;28;20118;-45
2023/09/19 11:01:12;;;;;;;0.00;0.00;;;;;;;19.44;73.12;100854.53;5112617;28;20035;-44
2023/09/19 11:03:43;;;;;;;0.00;0.00;;;;;;;19.99;71.11;100858.47;5113398;28;20028;-45
2023/09/19 11:06:16;;;;;;;0.00;0.00;;;;;;;19.98;71.31;100859.34;5113302;28;20149;-45
2023/09/19 11:08:57;;;;;;;0.00;0.00;;;;;;;20.00;70.65;100827.94;5112398;28;20020;-45
2023/09/19 11:11:46;;;;;;;0.00;0.00;;;;;;;19.90;68.20;100838.50;5113965;28;20099;-45
2023/09/19 11:14:23;;;;;;;0.00;0.00;;;;;;;19.93;66.33;100819.28;5116953;28;20054;-44
2023/09/19 11:17:11;;;;;;;0.00;0.00;;;;;;;20.08;66.53;100813.06;5117370;28;20023;-45
2023/09/19 11:20:16;;;;;;;0.00;0.00;;;;;;;20.10;66.96;100828.72;5117130;28;20036;-45
2023/09/19 11:22:50;;;;;;;0.00;0.00;;;;;;;20.13;66.52;100819.09;5116674;28;20027;-47
2023/09/19 11:25:30;;;;;;;0.10;0.10;;;;;;;20.53;63.75;100813.41;5116761;28;20498;-45
2023/09/19 11:28:17;;;;;;;0.00;0.00;;;;;;;20.35;64.34;100814.50;5117098;28;20081;-44
2023/09/19 11:30:47;;;;;;;0.00;0.00;;;;;;;20.40;60.45;100819.69;5117210;28;20517;-49